createdAt,value
2022-12-01T00:00:27.837Z,81.76
2022-12-01T00:01:50.801Z,81.62
2022-12-01T00:02:54.241Z,81.59
2022-12-01T00:03:57.185Z,81.80
2022-12-01T00:05:00.081Z,81.85
2022-12-01T00:06:18.250Z,81.89
2022-12-01T00:07:21.127Z,81.61
2022-12-01T00:08:24.359Z,81.56
2022-12-01T00:09:46.155Z,81.80
2022-12-01T00:10:49.332Z,81.75
2022-12-01T00:11:52.309Z,81.79
2022-12-01T00:12:57.193Z,81.64
2022-12-01T00:14:00.229Z,81.64
2022-12-01T00:15:03.227Z,81.48
2022-12-01T00:16:14.431Z,81.61
2022-12-01T00:17:17.289Z,81.72
2022-12-01T00:18:20.155Z,81.77
2022-12-01T00:19:27.464Z,81.69
2022-12-01T00:20:30.417Z,81.89
2022-12-01T00:21:33.246Z,81.93
2022-12-01T00:22:36.110Z,81.99
2022-12-01T00:23:38.941Z,81.78
2022-12-01T00:24:42.087Z,81.82
2022-12-01T00:25:44.970Z,81.90
2022-12-01T00:26:47.808Z,81.73
2022-12-01T00:27:52.612Z,82.10
2022-12-01T00:28:58.246Z,81.88
2022-12-01T00:30:01.796Z,81.63
2022-12-01T00:31:12.486Z,81.82
2022-12-01T00:32:15.539Z,81.51
2022-12-01T00:33:18.482Z,81.82
2022-12-01T00:34:24.332Z,81.73
2022-12-01T00:35:27.453Z,81.64
2022-12-01T00:36:30.342Z,81.80
2022-12-01T00:37:35.160Z,81.53
2022-12-01T00:38:38.290Z,81.55
2022-12-01T00:39:41.180Z,81.49
2022-12-01T00:40:44.408Z,81.58
2022-12-01T00:41:47.319Z,81.63
2022-12-01T00:42:51.172Z,81.47
2022-12-01T00:43:54.046Z,81.33
2022-12-01T00:44:57.151Z,81.36
2022-12-01T00:46:00.312Z,81.35
2022-12-01T00:47:03.304Z,81.47
2022-12-01T00:48:06.258Z,81.41
2022-12-01T00:49:12.876Z,81.16
2022-12-01T00:50:17.968Z,81.36
2022-12-01T00:51:20.965Z,81.46
2022-12-01T00:52:23.964Z,81.51
2022-12-01T00:53:26.812Z,81.32
2022-12-01T00:54:32.199Z,80.95
2022-12-01T00:55:35.492Z,81.30
2022-12-01T00:56:38.703Z,81.32
2022-12-01T00:57:41.657Z,81.31
2022-12-01T00:58:44.585Z,81.06
2022-12-01T00:59:47.667Z,81.13
2022-12-01T01:01:01.715Z,81.04
2022-12-01T01:02:08.798Z,81.15
2022-12-01T01:03:12.019Z,81.39
2022-12-01T01:04:15.399Z,81.14
2022-12-01T01:05:18.365Z,81.23
2022-12-01T01:06:21.214Z,81.08
2022-12-01T01:07:24.412Z,81.41
2022-12-01T01:08:27.340Z,81.43
2022-12-01T01:09:32.045Z,81.09
2022-12-01T01:10:41.883Z,81.17
2022-12-01T01:11:44.748Z,81.09
2022-12-01T01:12:47.821Z,80.83
2022-12-01T01:13:50.737Z,80.93
2022-12-01T01:14:53.710Z,81.31
2022-12-01T01:16:05.688Z,81.07
2022-12-01T01:17:08.648Z,81.03
2022-12-01T01:18:12.544Z,80.92
2022-12-01T01:19:16.762Z,81.10
2022-12-01T01:20:19.618Z,81.02
2022-12-01T01:21:26.896Z,81.15
2022-12-01T01:22:29.830Z,81.05
2022-12-01T01:23:33.323Z,81.08
2022-12-01T01:24:36.278Z,80.99
2022-12-01T01:25:39.267Z,81.18
2022-12-01T01:26:42.218Z,81.08
2022-12-01T01:27:45.063Z,81.08
2022-12-01T01:28:49.444Z,81.06
2022-12-01T01:29:52.320Z,81.07
2022-12-01T01:30:55.254Z,80.76
2022-12-01T01:31:58.375Z,80.85
2022-12-01T01:33:01.330Z,81.04
2022-12-01T01:34:04.853Z,80.85
2022-12-01T01:35:08.345Z,80.69
2022-12-01T01:36:11.862Z,80.87
2022-12-01T01:37:14.864Z,80.87
2022-12-01T01:38:18.218Z,81.27
2022-12-01T01:39:21.324Z,80.99
2022-12-01T01:40:24.321Z,80.99
2022-12-01T01:41:27.584Z,81.05
2022-12-01T01:42:30.460Z,80.97
2022-12-01T01:43:55.001Z,80.82
2022-12-01T01:44:59.142Z,80.94
2022-12-01T01:46:02.086Z,80.87
2022-12-01T01:47:05.129Z,80.97
2022-12-01T01:48:09.559Z,80.94
2022-12-01T01:49:14.829Z,80.84
2022-12-01T01:50:21.789Z,80.92
2022-12-01T01:51:33.586Z,80.99
2022-12-01T01:52:48.262Z,80.69
2022-12-01T01:53:56.123Z,80.43
2022-12-01T01:55:00.169Z,80.26
2022-12-01T01:56:04.720Z,80.28
2022-12-01T01:57:10.769Z,80.41
2022-12-01T01:58:14.054Z,80.56
2022-12-01T01:59:21.354Z,80.43
2022-12-01T02:00:25.616Z,80.69
2022-12-01T02:01:29.473Z,80.75
2022-12-01T02:02:33.319Z,80.53
2022-12-01T02:03:39.861Z,80.31
2022-12-01T02:04:47.709Z,80.29
2022-12-01T02:05:50.897Z,80.13
2022-12-01T02:06:55.562Z,80.05
2022-12-01T02:08:00.263Z,80.56
2022-12-01T02:09:03.486Z,80.17
2022-12-01T02:10:09.628Z,80.58
2022-12-01T02:11:33.926Z,80.46
2022-12-01T02:12:52.143Z,80.34
2022-12-01T02:14:14.080Z,80.48
2022-12-01T02:15:35.938Z,80.60
2022-12-01T02:16:56.247Z,80.58
2022-12-01T02:18:19.822Z,80.55
2022-12-01T02:19:54.316Z,80.70
2022-12-01T02:21:03.606Z,80.55
2022-12-01T02:22:28.108Z,80.35
2022-12-01T02:24:07.995Z,80.69
2022-12-01T02:25:22.970Z,80.35
2022-12-01T02:27:03.685Z,80.34
2022-12-01T02:28:35.448Z,80.43
2022-12-01T02:29:57.162Z,80.43
2022-12-01T02:32:51.119Z,80.41
2022-12-01T02:33:59.137Z,80.58
2022-12-01T02:35:20.898Z,80.29
2022-12-01T02:36:37.343Z,80.09
2022-12-01T02:37:53.823Z,80.25
2022-12-01T02:39:10.969Z,80.05
2022-12-01T02:40:37.834Z,80.08
2022-12-01T02:41:52.589Z,79.87
2022-12-01T02:43:05.401Z,80.13
2022-12-01T02:44:34.379Z,79.71
2022-12-01T02:46:16.356Z,79.79
2022-12-01T02:47:19.865Z,79.44
2022-12-01T02:48:28.850Z,79.66
2022-12-01T02:49:39.253Z,79.46
2022-12-01T02:50:43.043Z,79.80
2022-12-01T02:51:48.716Z,79.69
2022-12-01T02:52:53.835Z,79.45
2022-12-01T02:54:02.800Z,79.59
2022-12-01T02:55:06.337Z,79.56
2022-12-01T02:56:14.689Z,79.33
2022-12-01T02:57:17.630Z,79.43
2022-12-01T02:58:21.647Z,79.27
2022-12-01T02:59:25.024Z,78.80
2022-12-01T03:00:30.583Z,78.92
2022-12-01T03:01:39.759Z,78.90
2022-12-01T03:03:05.536Z,78.93
2022-12-01T03:04:39.229Z,78.87
2022-12-01T03:05:49.503Z,78.71
2022-12-01T03:07:11.010Z,78.64
2022-12-01T03:08:32.643Z,78.93
2022-12-01T03:09:49.057Z,78.98
2022-12-01T03:10:55.214Z,78.91
2022-12-01T03:12:06.901Z,78.99
2022-12-01T03:13:41.330Z,78.73
2022-12-01T03:15:15.357Z,78.75
2022-12-01T03:16:29.152Z,78.66
2022-12-01T03:17:42.523Z,78.72
2022-12-01T03:18:55.671Z,78.69
2022-12-01T03:20:20.726Z,78.71
2022-12-01T03:21:32.502Z,78.69
2022-12-01T03:22:41.679Z,78.71
2022-12-01T03:23:50.408Z,78.57
2022-12-01T03:24:55.845Z,78.53
2022-12-01T03:26:01.908Z,78.34
2022-12-01T03:27:06.215Z,78.71
2022-12-01T03:28:21.098Z,78.37
2022-12-01T03:29:31.354Z,78.19
2022-12-01T03:30:36.657Z,78.24
2022-12-01T03:31:45.802Z,78.29
2022-12-01T03:32:57.593Z,78.31
2022-12-01T03:34:11.126Z,78.33
2022-12-01T03:35:20.585Z,78.28
2022-12-01T03:36:54.952Z,78.38
2022-12-01T03:38:05.189Z,78.47
2022-12-01T03:39:14.960Z,78.31
2022-12-01T03:40:22.573Z,78.46
2022-12-01T03:41:31.807Z,78.56
2022-12-01T03:42:41.656Z,78.59
2022-12-01T03:43:51.649Z,78.67
2022-12-01T03:44:58.447Z,78.65
2022-12-01T03:46:09.176Z,78.44
2022-12-01T03:47:23.697Z,78.65
2022-12-01T03:48:27.667Z,78.65
2022-12-01T03:49:31.755Z,78.40
2022-12-01T03:50:43.968Z,78.75
2022-12-01T03:51:56.065Z,78.56
2022-12-01T03:53:31.762Z,78.73
2022-12-01T03:54:46.638Z,78.34
2022-12-01T03:55:57.181Z,78.54
2022-12-01T03:57:03.333Z,78.44
2022-12-01T03:58:11.381Z,77.89
2022-12-01T03:59:16.982Z,77.64
2022-12-01T04:00:20.550Z,78.17
2022-12-01T04:01:23.983Z,78.21
2022-12-01T04:02:28.926Z,78.24
2022-12-01T04:03:32.085Z,78.15
2022-12-01T04:04:35.133Z,77.91
2022-12-01T04:05:38.115Z,77.88
2022-12-01T04:06:43.312Z,77.86
2022-12-01T04:07:46.254Z,77.90
2022-12-01T04:08:49.169Z,77.73
2022-12-01T04:09:52.333Z,78.00
2022-12-01T04:10:55.301Z,77.87
2022-12-01T04:12:16.569Z,77.74
2022-12-01T04:13:25.825Z,77.83
2022-12-01T04:14:30.081Z,77.07
2022-12-01T04:15:33.046Z,77.28
2022-12-01T04:16:36.213Z,77.48
2022-12-01T04:17:40.526Z,77.73
2022-12-01T04:18:43.473Z,77.69
2022-12-01T04:19:46.616Z,77.62
2022-12-01T04:20:50.624Z,77.47
2022-12-01T04:21:53.582Z,77.50
2022-12-01T04:22:56.532Z,77.65
2022-12-01T04:24:02.081Z,77.62
2022-12-01T04:25:06.597Z,77.58
2022-12-01T04:26:15.448Z,77.85
2022-12-01T04:27:19.819Z,77.29
2022-12-01T04:28:22.722Z,77.83
2022-12-01T04:29:25.636Z,77.49
2022-12-01T04:30:28.542Z,77.39
2022-12-01T04:31:31.735Z,77.50
2022-12-01T04:32:42.934Z,77.61
2022-12-01T04:33:45.936Z,77.78
2022-12-01T04:34:48.817Z,77.44
2022-12-01T04:36:01.322Z,77.68
2022-12-01T04:37:05.985Z,77.55
2022-12-01T04:38:09.027Z,77.81
2022-12-01T04:39:11.874Z,77.54
2022-12-01T04:40:14.797Z,77.77
2022-12-01T04:41:17.757Z,77.82
2022-12-01T04:42:20.859Z,78.02
2022-12-01T04:43:23.899Z,77.52
2022-12-01T04:44:31.459Z,77.48
2022-12-01T04:45:38.215Z,77.58
2022-12-01T04:46:41.585Z,77.55
2022-12-01T04:47:44.729Z,77.51
2022-12-01T04:48:48.140Z,77.38
2022-12-01T04:49:51.987Z,77.68
2022-12-01T04:50:55.236Z,77.64
2022-12-01T04:51:58.638Z,77.73
2022-12-01T04:53:01.754Z,77.72
2022-12-01T04:54:05.867Z,77.31
2022-12-01T04:55:09.302Z,77.41
2022-12-01T04:56:12.397Z,77.36
2022-12-01T04:57:15.563Z,77.36
2022-12-01T04:58:18.485Z,77.18
2022-12-01T04:59:21.677Z,77.61
2022-12-01T05:00:24.652Z,77.51
2022-12-01T05:01:28.145Z,77.50
2022-12-01T05:02:31.115Z,77.31
2022-12-01T05:03:42.518Z,77.29
2022-12-01T05:04:48.090Z,77.34
2022-12-01T05:06:01.222Z,77.00
2022-12-01T05:07:04.288Z,76.81
2022-12-01T05:08:07.316Z,77.24
2022-12-01T05:09:17.408Z,77.33
2022-12-01T05:10:21.087Z,77.13
2022-12-01T05:11:24.946Z,77.10
2022-12-01T05:12:27.873Z,77.22
2022-12-01T05:13:30.944Z,77.46
2022-12-01T05:14:33.907Z,77.32
2022-12-01T05:15:36.873Z,77.29
2022-12-01T05:16:39.874Z,77.17
2022-12-01T05:17:42.945Z,77.24
2022-12-01T05:19:20.214Z,77.18
2022-12-01T05:20:44.358Z,77.47
2022-12-01T05:21:49.760Z,77.08
2022-12-01T05:23:10.865Z,77.17
2022-12-01T05:24:16.190Z,77.15
2022-12-01T05:25:19.341Z,77.16
2022-12-01T05:26:22.282Z,77.33
2022-12-01T05:27:25.362Z,77.40
2022-12-01T05:28:28.901Z,77.17
2022-12-01T05:29:33.078Z,77.38
2022-12-01T05:30:36.233Z,77.17
2022-12-01T05:31:41.015Z,77.34
2022-12-01T05:32:44.494Z,77.38
2022-12-01T05:33:47.444Z,77.19
2022-12-01T05:34:50.297Z,77.24
2022-12-01T05:35:53.694Z,77.05
2022-12-01T05:36:56.629Z,76.81
2022-12-01T05:38:04.538Z,77.10
2022-12-01T05:39:10.405Z,76.70
2022-12-01T05:40:13.458Z,77.14
2022-12-01T05:41:16.738Z,77.05
2022-12-01T05:42:20.024Z,76.94
2022-12-01T05:43:28.620Z,76.80
2022-12-01T05:44:32.240Z,76.60
2022-12-01T05:45:35.695Z,76.62
2022-12-01T05:46:38.805Z,76.88
2022-12-01T05:47:41.742Z,76.98
2022-12-01T05:48:44.953Z,77.04
2022-12-01T05:49:48.066Z,77.42
2022-12-01T05:50:51.336Z,77.56
2022-12-01T05:51:54.282Z,77.34
2022-12-01T05:52:57.311Z,77.54
2022-12-01T05:54:00.848Z,77.19
2022-12-01T05:55:05.540Z,77.41
2022-12-01T05:56:10.169Z,76.99
2022-12-01T05:57:13.266Z,77.05
2022-12-01T05:58:16.399Z,77.23
2022-12-01T05:59:19.417Z,77.34
2022-12-01T06:00:22.505Z,77.21
2022-12-01T06:01:25.473Z,77.17
2022-12-01T06:02:28.410Z,77.30
2022-12-01T06:03:31.547Z,77.42
2022-12-01T06:04:34.737Z,77.33
2022-12-01T06:05:37.689Z,77.12
2022-12-01T06:06:40.573Z,77.33
2022-12-01T06:07:43.720Z,77.53
2022-12-01T06:08:46.741Z,77.19
2022-12-01T06:09:50.057Z,77.18
2022-12-01T06:10:53.194Z,77.12
2022-12-01T06:11:56.171Z,77.24
2022-12-01T06:12:59.027Z,77.41
2022-12-01T06:14:02.162Z,77.39
2022-12-01T06:15:07.195Z,77.33
2022-12-01T06:16:10.060Z,77.32
2022-12-01T06:17:12.980Z,77.41
2022-12-01T06:18:15.992Z,77.38
2022-12-01T06:19:18.996Z,77.46
2022-12-01T06:20:23.433Z,77.41
2022-12-01T06:21:26.430Z,77.43
2022-12-01T06:22:29.453Z,77.44
2022-12-01T06:23:32.839Z,77.57
2022-12-01T06:24:36.121Z,77.46
2022-12-01T06:25:39.122Z,77.55
2022-12-01T06:26:42.069Z,77.20
2022-12-01T06:27:45.137Z,77.21
2022-12-01T06:28:48.083Z,77.14
2022-12-01T06:29:51.443Z,77.36
2022-12-01T06:31:01.037Z,77.29
2022-12-01T06:32:06.097Z,77.36
2022-12-01T06:33:09.216Z,77.24
2022-12-01T06:34:12.382Z,77.17
2022-12-01T06:35:15.559Z,77.33
2022-12-01T06:36:19.207Z,77.32
2022-12-01T06:37:22.150Z,77.23
2022-12-01T06:38:25.060Z,77.27
2022-12-01T06:39:27.968Z,76.83
2022-12-01T06:40:31.515Z,76.58
2022-12-01T06:41:34.622Z,76.43
2022-12-01T06:42:37.604Z,76.97
2022-12-01T06:43:40.665Z,76.61
2022-12-01T06:44:43.582Z,76.52
2022-12-01T06:45:46.675Z,76.75
2022-12-01T06:46:52.891Z,77.00
2022-12-01T06:47:57.002Z,77.09
2022-12-01T06:49:00.087Z,76.97
2022-12-01T06:50:04.538Z,76.95
2022-12-01T06:51:07.532Z,76.85
2022-12-01T06:52:10.636Z,76.80
2022-12-01T06:53:13.689Z,76.92
2022-12-01T06:54:18.033Z,76.85
2022-12-01T06:55:21.411Z,76.70
2022-12-01T06:56:25.218Z,76.61
2022-12-01T06:57:28.501Z,76.94
2022-12-01T06:58:32.434Z,76.90
2022-12-01T06:59:35.717Z,76.76
2022-12-01T07:00:39.153Z,77.12
2022-12-01T07:01:42.242Z,76.98
2022-12-01T07:02:45.505Z,76.86
2022-12-01T07:03:51.491Z,76.86
2022-12-01T07:04:54.702Z,77.07
2022-12-01T07:05:59.218Z,77.19
2022-12-01T07:07:03.966Z,76.93
2022-12-01T07:08:07.683Z,77.13
2022-12-01T07:09:10.853Z,76.76
2022-12-01T07:10:14.233Z,76.96
2022-12-01T07:11:17.181Z,77.15
2022-12-01T07:12:20.211Z,77.02
2022-12-01T07:13:23.330Z,77.43
2022-12-01T07:14:27.260Z,77.40
2022-12-01T07:15:30.192Z,77.22
2022-12-01T07:16:33.142Z,76.78
2022-12-01T07:17:36.555Z,77.01
2022-12-01T07:18:40.515Z,77.01
2022-12-01T07:19:43.472Z,77.21
2022-12-01T07:20:46.422Z,77.17
2022-12-01T07:21:49.444Z,77.27
2022-12-01T07:22:54.423Z,77.09
2022-12-01T07:23:57.552Z,77.25
2022-12-01T07:25:00.519Z,77.34
2022-12-01T07:26:12.498Z,77.13
2022-12-01T07:27:15.428Z,77.06
2022-12-01T07:28:18.377Z,77.11
2022-12-01T07:29:21.494Z,77.04
2022-12-01T07:30:28.448Z,77.00
2022-12-01T07:31:31.731Z,76.94
2022-12-01T07:32:34.707Z,76.94
2022-12-01T07:33:38.053Z,76.75
2022-12-01T07:34:41.627Z,77.04
2022-12-01T07:35:44.543Z,77.03
2022-12-01T07:36:47.405Z,77.14
2022-12-01T07:37:56.631Z,77.03
2022-12-01T07:39:00.704Z,77.11
2022-12-01T07:40:04.596Z,77.19
2022-12-01T07:41:13.431Z,76.77
2022-12-01T07:42:16.314Z,77.11
2022-12-01T07:43:19.200Z,77.13
2022-12-01T07:44:22.350Z,76.95
2022-12-01T07:45:25.367Z,77.44
2022-12-01T07:46:28.998Z,77.14
2022-12-01T07:47:32.056Z,76.96
2022-12-01T07:48:37.164Z,76.60
2022-12-01T07:49:40.165Z,76.70
2022-12-01T07:50:43.461Z,76.54
2022-12-01T07:51:46.652Z,76.28
2022-12-01T07:52:50.843Z,76.58
2022-12-01T07:53:54.717Z,76.93
2022-12-01T07:54:57.722Z,76.99
2022-12-01T07:56:05.691Z,76.82
2022-12-01T07:57:14.344Z,76.77
2022-12-01T07:58:17.519Z,76.32
2022-12-01T07:59:20.544Z,76.61
2022-12-01T08:00:23.827Z,76.49
2022-12-01T08:01:27.196Z,76.50
2022-12-01T08:02:30.200Z,76.52
2022-12-01T08:03:33.370Z,76.09
2022-12-01T08:04:36.410Z,76.25
2022-12-01T08:05:39.514Z,76.17
2022-12-01T08:06:42.693Z,75.96
2022-12-01T08:07:45.705Z,75.87
2022-12-01T08:08:49.512Z,75.90
2022-12-01T08:09:52.395Z,75.66
2022-12-01T08:11:00.661Z,75.84
2022-12-01T08:12:03.851Z,75.73
2022-12-01T08:13:06.900Z,75.85
2022-12-01T08:14:09.810Z,75.85
2022-12-01T08:15:12.823Z,76.34
2022-12-01T08:16:18.428Z,76.18
2022-12-01T08:17:21.642Z,76.05
2022-12-01T08:18:24.855Z,75.91
2022-12-01T08:19:29.298Z,76.06
2022-12-01T08:20:32.186Z,76.07
2022-12-01T08:21:37.704Z,76.13
2022-12-01T08:22:40.928Z,75.84
2022-12-01T08:23:44.930Z,75.72
2022-12-01T08:24:47.790Z,75.87
2022-12-01T08:25:52.537Z,75.93
2022-12-01T08:26:55.762Z,76.14
2022-12-01T08:28:00.479Z,75.98
2022-12-01T08:29:03.403Z,76.15
2022-12-01T08:30:07.171Z,75.96
2022-12-01T08:31:31.829Z,75.87
2022-12-01T08:32:34.822Z,75.99
2022-12-01T08:33:38.329Z,75.96
2022-12-01T08:34:41.500Z,75.95
2022-12-01T08:35:44.702Z,75.85
2022-12-01T08:36:48.297Z,75.69
2022-12-01T08:37:54.523Z,75.79
2022-12-01T08:38:57.588Z,75.85
2022-12-01T08:40:00.783Z,75.69
2022-12-01T08:41:23.994Z,75.67
2022-12-01T08:42:36.123Z,75.69
2022-12-01T08:44:00.753Z,75.43
2022-12-01T08:45:05.234Z,75.66
2022-12-01T08:46:09.103Z,75.68
2022-12-01T08:47:15.694Z,75.40
2022-12-01T08:48:21.704Z,75.39
2022-12-01T08:49:24.865Z,75.33
2022-12-01T08:50:28.540Z,75.47
2022-12-01T08:51:32.160Z,75.32
2022-12-01T08:52:35.509Z,75.26
2022-12-01T08:53:45.527Z,75.17
2022-12-01T08:54:48.907Z,74.83
2022-12-01T08:55:52.151Z,74.62
2022-12-01T08:56:55.071Z,74.61
2022-12-01T08:57:58.107Z,74.93
2022-12-01T08:59:01.313Z,75.00
2022-12-01T09:00:05.560Z,75.07
2022-12-01T09:01:11.619Z,75.24
2022-12-01T09:02:16.069Z,75.04
2022-12-01T09:03:19.183Z,75.38
2022-12-01T09:04:25.236Z,75.44
2022-12-01T09:05:28.582Z,75.44
2022-12-01T09:06:34.300Z,74.99
2022-12-01T09:07:37.267Z,74.14
2022-12-01T09:08:41.219Z,74.44
2022-12-01T09:09:45.464Z,74.44
2022-12-01T09:10:52.504Z,74.54
2022-12-01T09:11:55.987Z,74.13
2022-12-01T09:12:59.126Z,74.07
2022-12-01T09:14:02.059Z,74.35
2022-12-01T09:15:05.509Z,74.69
2022-12-01T09:16:14.482Z,74.48
2022-12-01T09:17:17.804Z,74.66
2022-12-01T09:18:21.014Z,74.81
2022-12-01T09:19:25.322Z,74.70
2022-12-01T09:20:28.409Z,74.96
2022-12-01T09:21:33.200Z,74.80
2022-12-01T09:22:36.350Z,74.82
2022-12-01T09:23:39.676Z,74.59
2022-12-01T09:24:42.628Z,74.94
2022-12-01T09:25:45.637Z,74.83
2022-12-01T09:26:48.744Z,74.70
2022-12-01T09:27:51.883Z,74.68
2022-12-01T09:29:06.417Z,74.79
2022-12-01T09:30:10.085Z,74.62
2022-12-01T09:31:13.821Z,74.59
2022-12-01T09:32:16.888Z,74.50
2022-12-01T09:33:19.990Z,74.72
2022-12-01T09:34:23.287Z,74.72
2022-12-01T09:35:26.354Z,74.66
2022-12-01T09:36:31.448Z,74.94
2022-12-01T09:37:34.344Z,74.83
2022-12-01T09:38:38.677Z,74.52
2022-12-01T09:39:41.612Z,74.74
2022-12-01T09:40:44.683Z,74.84
2022-12-01T09:42:22.264Z,74.67
2022-12-01T09:43:29.792Z,74.61
2022-12-01T09:44:39.229Z,74.49
2022-12-01T09:45:47.505Z,74.43
2022-12-01T09:46:55.383Z,74.28
2022-12-01T09:48:03.366Z,74.33
2022-12-01T09:49:12.303Z,74.59
2022-12-01T09:50:20.275Z,74.76
2022-12-01T09:51:26.526Z,74.78
2022-12-01T09:52:34.407Z,74.73
2022-12-01T09:53:38.799Z,74.68
2022-12-01T09:54:41.874Z,74.96
2022-12-01T09:55:44.948Z,75.18
2022-12-01T09:56:50.629Z,74.98
2022-12-01T09:57:55.813Z,74.76
2022-12-01T09:59:02.380Z,74.56
2022-12-01T10:00:16.465Z,74.30
2022-12-01T10:01:31.666Z,74.67
2022-12-01T10:02:37.437Z,74.90
2022-12-01T10:03:48.391Z,74.86
2022-12-01T10:04:52.261Z,74.91
2022-12-01T10:07:52.109Z,74.89
2022-12-01T10:09:05.648Z,74.80
2022-12-01T10:10:18.034Z,74.90
2022-12-01T10:11:35.655Z,74.86
2022-12-01T10:12:44.076Z,74.42
2022-12-01T10:13:47.020Z,73.73
2022-12-01T10:14:50.762Z,73.72
2022-12-01T10:15:53.671Z,74.04
2022-12-01T10:17:15.532Z,73.84
2022-12-01T10:18:36.651Z,73.61
2022-12-01T10:19:58.837Z,73.85
2022-12-01T10:21:33.069Z,73.92
2022-12-01T10:23:09.902Z,74.19
2022-12-01T10:24:34.202Z,74.21
2022-12-01T10:25:52.098Z,73.95
2022-12-01T10:27:43.241Z,74.24
2022-12-01T10:28:58.220Z,74.11
2022-12-01T10:30:25.262Z,74.19
2022-12-01T10:31:53.173Z,73.83
2022-12-01T10:33:14.354Z,73.81
2022-12-01T10:34:34.725Z,74.22
2022-12-01T10:35:39.425Z,74.21
2022-12-01T10:36:42.579Z,74.13
2022-12-01T10:37:47.485Z,74.11
2022-12-01T10:38:50.477Z,74.05
2022-12-01T10:39:55.817Z,74.07
2022-12-01T10:41:01.307Z,74.24
2022-12-01T10:42:10.531Z,74.08
2022-12-01T10:43:14.138Z,73.74
2022-12-01T10:44:18.776Z,74.17
2022-12-01T10:45:24.737Z,73.79
2022-12-01T10:46:39.681Z,73.67
2022-12-01T10:48:09.335Z,73.72
2022-12-01T10:49:14.952Z,73.70
2022-12-01T10:50:28.094Z,73.60
2022-12-01T10:51:31.276Z,73.77
2022-12-01T10:52:40.322Z,73.85
2022-12-01T10:53:43.424Z,73.49
2022-12-01T10:54:46.429Z,73.74
2022-12-01T10:55:58.927Z,73.33
2022-12-01T10:57:03.122Z,73.14
2022-12-01T10:58:14.649Z,73.28
2022-12-01T10:59:26.003Z,72.65
2022-12-01T11:01:59.549Z,73.18
2022-12-01T11:03:04.335Z,73.06
2022-12-01T11:04:24.821Z,73.19
2022-12-01T11:05:32.953Z,73.00
2022-12-01T11:06:37.455Z,72.64
2022-12-01T11:07:47.085Z,72.94
2022-12-01T11:08:57.722Z,72.90
2022-12-01T11:10:39.338Z,72.42
2022-12-01T11:11:42.711Z,72.49
2022-12-01T11:12:55.407Z,72.24
2022-12-01T11:14:02.509Z,72.49
2022-12-01T11:15:06.546Z,72.25
2022-12-01T11:16:37.492Z,72.21
2022-12-01T11:17:44.876Z,72.18
2022-12-01T11:18:47.945Z,72.58
2022-12-01T11:19:51.302Z,72.57
2022-12-01T11:21:12.318Z,72.59
2022-12-01T11:22:33.475Z,72.11
2022-12-01T11:23:39.054Z,72.40
2022-12-01T11:24:57.048Z,71.86
2022-12-01T11:26:05.465Z,72.06
2022-12-01T11:27:16.888Z,72.17
2022-12-01T11:28:20.955Z,72.17
2022-12-01T11:29:36.393Z,72.13
2022-12-01T11:30:39.347Z,72.45
2022-12-01T11:31:46.915Z,72.16
2022-12-01T11:33:00.001Z,72.07
2022-12-01T11:34:03.216Z,72.25
2022-12-01T11:35:21.974Z,72.06
2022-12-01T11:36:37.699Z,72.08
2022-12-01T11:38:13.292Z,72.18
2022-12-01T11:39:24.678Z,71.83
2022-12-01T11:40:33.544Z,71.98
2022-12-01T11:41:40.327Z,71.81
2022-12-01T11:42:52.139Z,71.80
2022-12-01T11:44:01.452Z,71.67
2022-12-01T11:45:23.727Z,71.67
2022-12-01T11:46:34.174Z,71.73
2022-12-01T11:48:01.511Z,71.96
2022-12-01T11:49:04.773Z,72.00
2022-12-01T11:50:25.098Z,72.11
2022-12-01T11:51:38.240Z,71.96
2022-12-01T11:52:47.455Z,71.42
2022-12-01T11:54:06.489Z,71.39
2022-12-01T11:55:12.591Z,71.15
2022-12-01T11:56:20.764Z,71.44
2022-12-01T11:57:39.466Z,71.37
2022-12-01T11:58:43.419Z,71.60
2022-12-01T11:59:47.265Z,71.66
2022-12-01T12:00:56.143Z,71.46
2022-12-01T12:02:18.056Z,71.73
2022-12-01T12:03:29.441Z,71.56
2022-12-01T12:04:57.207Z,71.44
2022-12-01T12:06:38.365Z,71.50
2022-12-01T12:07:52.532Z,71.55
2022-12-01T12:09:10.784Z,71.40
2022-12-01T12:10:36.267Z,71.81
2022-12-01T12:11:49.962Z,71.25
2022-12-01T12:13:20.357Z,71.07
2022-12-01T12:14:32.209Z,71.06
2022-12-01T12:15:50.333Z,71.16
2022-12-01T12:17:07.016Z,70.75
2022-12-01T12:18:38.068Z,71.22
2022-12-01T12:20:12.203Z,71.01
2022-12-01T12:21:30.354Z,71.38
2022-12-01T12:22:55.397Z,71.22
2022-12-01T12:24:25.544Z,71.17
2022-12-01T12:25:34.655Z,71.30
2022-12-01T12:27:16.012Z,71.40
2022-12-01T12:28:57.595Z,71.12
2022-12-01T12:30:24.316Z,70.82
2022-12-01T12:32:02.994Z,71.22
2022-12-01T12:33:18.997Z,71.57
2022-12-01T12:34:30.091Z,71.42
2022-12-01T12:35:33.118Z,71.29
2022-12-01T12:37:14.527Z,71.36
2022-12-01T12:38:29.536Z,71.15
2022-12-01T12:39:57.516Z,71.13
2022-12-01T12:41:29.725Z,71.17
2022-12-01T12:42:50.961Z,71.02
2022-12-01T12:44:18.531Z,71.08
2022-12-01T12:45:47.531Z,71.20
2022-12-01T12:47:29.379Z,70.97
2022-12-01T12:49:25.538Z,70.95
2022-12-01T12:50:36.819Z,70.54
2022-12-01T12:52:08.140Z,71.17
2022-12-01T12:53:20.141Z,70.89
2022-12-01T12:54:49.420Z,70.80
2022-12-01T12:55:58.106Z,71.03
2022-12-01T12:57:05.935Z,70.10
2022-12-01T12:58:21.747Z,70.51
2022-12-01T12:59:30.044Z,70.38
2022-12-01T13:00:35.277Z,70.67
2022-12-01T13:01:43.270Z,70.69
2022-12-01T13:02:55.329Z,70.91
2022-12-01T13:04:09.467Z,70.82
2022-12-01T13:05:36.220Z,70.30
2022-12-01T13:06:45.740Z,70.98
2022-12-01T13:08:04.589Z,71.02
2022-12-01T13:09:16.622Z,71.03
2022-12-01T13:10:23.283Z,70.82
2022-12-01T13:11:48.549Z,70.95
2022-12-01T13:12:57.960Z,70.75
2022-12-01T13:14:10.826Z,71.01
2022-12-01T13:15:17.672Z,71.10
2022-12-01T13:16:41.343Z,70.78
2022-12-01T13:17:51.420Z,70.90
2022-12-01T13:19:07.931Z,70.73
2022-12-01T13:20:16.042Z,70.66
2022-12-01T13:21:21.137Z,70.69
2022-12-01T13:22:31.225Z,70.80
2022-12-01T13:23:37.659Z,70.95
2022-12-01T13:24:41.005Z,70.92
2022-12-01T13:25:50.351Z,70.50
2022-12-01T13:27:06.787Z,70.74
2022-12-01T13:28:22.102Z,70.97
2022-12-01T13:29:27.071Z,70.73
2022-12-01T13:30:31.044Z,70.88
2022-12-01T13:31:46.590Z,70.99
2022-12-01T13:32:57.454Z,70.89
2022-12-01T13:34:03.128Z,71.09
2022-12-01T13:35:27.653Z,70.84
2022-12-01T13:36:48.160Z,70.61
2022-12-01T13:37:51.426Z,70.84
2022-12-01T13:39:02.648Z,70.95
2022-12-01T13:40:25.425Z,70.72
2022-12-01T13:41:39.785Z,70.70
2022-12-01T13:42:44.374Z,70.48
2022-12-01T13:43:59.185Z,70.66
2022-12-01T13:45:10.294Z,70.82
2022-12-01T13:46:44.408Z,70.70
2022-12-01T13:47:52.305Z,70.71
2022-12-01T13:48:57.716Z,70.50
2022-12-01T13:50:39.499Z,71.03
2022-12-01T13:52:20.070Z,70.28
2022-12-01T13:53:23.210Z,70.38
2022-12-01T13:54:30.295Z,70.31
2022-12-01T13:55:33.465Z,70.00
2022-12-01T13:56:45.733Z,69.97
2022-12-01T13:57:59.508Z,70.00
2022-12-01T13:59:03.674Z,70.04
2022-12-01T14:00:29.964Z,70.07
2022-12-01T14:01:35.322Z,70.36
2022-12-01T14:02:38.548Z,70.02
2022-12-01T14:03:51.689Z,70.39
2022-12-01T14:04:54.911Z,69.72
2022-12-01T14:06:10.283Z,70.03
2022-12-01T14:07:50.310Z,70.11
2022-12-01T14:09:02.937Z,70.02
2022-12-01T14:10:17.276Z,70.10
2022-12-01T14:11:25.989Z,70.13
2022-12-01T14:12:34.418Z,69.90
2022-12-01T14:13:58.813Z,69.97
2022-12-01T14:15:20.742Z,70.26
2022-12-01T14:16:24.663Z,70.35
2022-12-01T14:17:33.758Z,69.84
2022-12-01T14:18:41.758Z,70.00
2022-12-01T14:19:52.538Z,70.05
2022-12-01T14:20:56.062Z,69.67
2022-12-01T14:22:00.472Z,69.84
2022-12-01T14:23:15.055Z,69.87
2022-12-01T14:24:34.359Z,70.07
2022-12-01T14:25:38.792Z,69.92
2022-12-01T14:26:45.302Z,69.99
2022-12-01T14:27:51.566Z,69.76
2022-12-01T14:29:00.543Z,69.80
2022-12-01T14:30:40.966Z,69.84
2022-12-01T14:31:44.949Z,69.81
2022-12-01T14:32:48.907Z,69.92
2022-12-01T14:33:53.594Z,70.03
2022-12-01T14:35:01.491Z,70.08
2022-12-01T14:36:22.844Z,70.01
2022-12-01T14:37:33.307Z,69.71
2022-12-01T14:38:36.885Z,69.74
2022-12-01T14:39:51.999Z,69.83
2022-12-01T14:40:55.318Z,69.57
2022-12-01T14:42:36.352Z,70.00
2022-12-01T14:44:01.527Z,69.71
2022-12-01T14:45:08.230Z,69.89
2022-12-01T14:46:23.028Z,69.76
2022-12-01T14:47:33.727Z,70.01
2022-12-01T14:48:43.280Z,69.74
2022-12-01T14:50:11.802Z,70.07
2022-12-01T14:51:29.987Z,69.66